Embarcacion, Argentina
Current Conditions -  °F | °C
As of 3:00 PM on Sunday 21 Dec 2014 (Local Time) from SASJ Reporting Station
Broken Clouds Broken Clouds  
Wind Chill: 73°   Ceiling: 10000
Heat Index: 73°   Visibility: 6mi
Dew Point: 57°   Wind: 5mph
Humidity: 57%   Direction: 90°E
Pressure: 29.8"   Gusts: NA
Location:  23.22°S, 64.1°W
Report Text: SASJ 211800Z 09004KT 9999 SCT030 BKN10023/14 Q1009
Loading
Personal Weather Stations






























Interactive Weather Map New forecast layout! Learn more

10-Day Weather Forecast

Advertisements
Track Severe Weather on mobile